sensor_id;sensor_type;location;lat;lon;timestamp;temperature;humidity
11087;DHT22;5597;47.588;9.642;2023-02-11T00:00:10;-3.70;99.90
11087;DHT22;5597;47.588;9.642;2023-02-11T00:02:36;-3.80;99.90
11087;DHT22;5597;47.588;9.642;2023-02-11T00:05:02;-3.80;99.90
11087;DHT22;5597;47.588;9.642;2023-02-11T00:07:29;-3.80;99.90
11087;DHT22;5597;47.588;9.642;2023-02-11T00:09:55;-3.90;99.90
11087;DHT22;5597;47.588;9.642;2023-02-11T00:12:21;-3.90;99.90
11087;DHT22;5597;47.588;9.642;2023-02-11T00:14:47;-3.90;99.90
11087;DHT22;5597;47.588;9.642;2023-02-11T00:17:13;-3.90;99.90
11087;DHT22;5597;47.588;9.642;2023-02-11T00:19:39;-3.90;99.90
11087;DHT22;5597;47.588;9.642;2023-02-11T00:22:05;-3.90;99.90
11087;DHT22;5597;47.588;9.642;2023-02-11T00:24:30;-3.90;99.90
11087;DHT22;5597;47.588;9.642;2023-02-11T00:26:56;-3.90;99.90
11087;DHT22;5597;47.588;9.642;2023-02-11T00:29:22;-3.90;99.90
11087;DHT22;5597;47.588;9.642;2023-02-11T00:31:48;-3.90;99.90
11087;DHT22;5597;47.588;9.642;2023-02-11T00:34:14;-4.00;99.90
11087;DHT22;5597;47.588;9.642;2023-02-11T00:36:40;-4.00;99.90
11087;DHT22;5597;47.588;9.642;2023-02-11T00:39:06;-4.10;99.90
11087;DHT22;5597;47.588;9.642;2023-02-11T00:41:32;-4.10;99.90
11087;DHT22;5597;47.588;9.642;2023-02-11T00:43:58;-4.10;99.90
11087;DHT22;5597;47.588;9.642;2023-02-11T00:46:23;-4.10;99.90
11087;DHT22;5597;47.588;9.642;2023-02-11T00:48:49;-4.00;99.90
11087;DHT22;5597;47.588;9.642;2023-02-11T00:51:16;-4.10;99.90
11087;DHT22;5597;47.588;9.642;2023-02-11T00:53:42;-4.10;99.90
11087;DHT22;5597;47.588;9.642;2023-02-11T00:56:08;-4.10;99.90
11087;DHT22;5597;47.588;9.642;2023-02-11T00:58:34;-4.10;99.90
11087;DHT22;5597;47.588;9.642;2023-02-11T01:00:59;-4.10;99.90
11087;DHT22;5597;47.588;9.642;2023-02-11T01:03:25;-4.10;99.90
11087;DHT22;5597;47.588;9.642;2023-02-11T01:05:52;-4.10;99.90
11087;DHT22;5597;47.588;9.642;2023-02-11T01:08:18;-4.20;99.90
11087;DHT22;5597;47.588;9.642;2023-02-11T01:10:44;-4.20;99.90
11087;DHT22;5597;47.588;9.642;2023-02-11T01:13:10;-4.20;99.90
11087;DHT22;5597;47.588;9.642;2023-02-11T01:15:35;-4.20;99.90
11087;DHT22;5597;47.588;9.642;2023-02-11T01:18:01;-4.20;99.90
11087;DHT22;5597;47.588;9.642;2023-02-11T01:20:27;-4.20;99.90
11087;DHT22;5597;47.588;9.642;2023-02-11T01:22:54;-4.20;99.90
11087;DHT22;5597;47.588;9.642;2023-02-11T01:25:19;-4.20;99.90
11087;DHT22;5597;47.588;9.642;2023-02-11T01:27:45;-4.20;99.90
11087;DHT22;5597;47.588;9.642;2023-02-11T01:30:13;-4.30;99.90
11087;DHT22;5597;47.588;9.642;2023-02-11T01:32:39;-4.30;99.90
11087;DHT22;5597;47.588;9.642;2023-02-11T01:35:05;-4.30;99.90
11087;DHT22;5597;47.588;9.642;2023-02-11T01:37:35;-4.30;99.90
11087;DHT22;5597;47.588;9.642;2023-02-11T01:40:02;-4.30;99.90
11087;DHT22;5597;47.588;9.642;2023-02-11T01:42:28;-4.30;99.90
11087;DHT22;5597;47.588;9.642;2023-02-11T01:44:55;-4.30;99.90
11087;DHT22;5597;47.588;9.642;2023-02-11T01:47:21;-4.40;99.90
11087;DHT22;5597;47.588;9.642;2023-02-11T01:49:54;-4.40;99.90
11087;DHT22;5597;47.588;9.642;2023-02-11T01:52:31;-4.40;99.90
11087;DHT22;5597;47.588;9.642;2023-02-11T01:55:02;-4.50;99.90
11087;DHT22;5597;47.588;9.642;2023-02-11T01:57:51;-4.50;99.90
11087;DHT22;5597;47.588;9.642;2023-02-11T02:00:38;-4.50;99.90
11087;DHT22;5597;47.588;9.642;2023-02-11T02:03:21;-4.50;99.90
11087;DHT22;5597;47.588;9.642;2023-02-11T02:10:56;-4.60;99.90
11087;DHT22;5597;47.588;9.642;2023-02-11T02:13:26;-4.60;99.90
11087;DHT22;5597;47.588;9.642;2023-02-11T02:15:54;-4.70;99.90
11087;DHT22;5597;47.588;9.642;2023-02-11T02:18:35;-4.70;99.90
11087;DHT22;5597;47.588;9.642;2023-02-11T02:24:09;-4.70;99.90
11087;DHT22;5597;47.588;9.642;2023-02-11T02:27:03;-4.70;99.90
11087;DHT22;5597;47.588;9.642;2023-02-11T02:30:24;-4.70;99.90
11087;DHT22;5597;47.588;9.642;2023-02-11T02:35:58;-4.60;99.90
11087;DHT22;5597;47.588;9.642;2023-02-11T02:38:38;-4.60;99.90
11087;DHT22;5597;47.588;9.642;2023-02-11T02:41:08;-4.60;99.90
11087;DHT22;5597;47.588;9.642;2023-02-11T02:43:39;-4.70;99.90
11087;DHT22;5597;47.588;9.642;2023-02-11T02:46:24;-4.70;99.90
11087;DHT22;5597;47.588;9.642;2023-02-11T02:48:50;-4.70;99.90
11087;DHT22;5597;47.588;9.642;2023-02-11T02:51:59;-4.70;99.90
11087;DHT22;5597;47.588;9.642;2023-02-11T02:55:15;-4.80;99.90
11087;DHT22;5597;47.588;9.642;2023-02-11T03:08:59;-4.80;99.90
11087;DHT22;5597;47.588;9.642;2023-02-11T03:11:28;-4.80;99.90
11087;DHT22;5597;47.588;9.642;2023-02-11T03:13:54;-4.90;99.90
11087;DHT22;5597;47.588;9.642;2023-02-11T03:16:27;-4.90;99.90
11087;DHT22;5597;47.588;9.642;2023-02-11T03:19:19;-5.00;99.90
11087;DHT22;5597;47.588;9.642;2023-02-11T03:21:43;-5.00;99.90
11087;DHT22;5597;47.588;9.642;2023-02-11T03:24:27;-5.00;99.90
11087;DHT22;5597;47.588;9.642;2023-02-11T03:26:57;-4.90;99.90
11087;DHT22;5597;47.588;9.642;2023-02-11T03:37:30;-4.90;99.90
11087;DHT22;5597;47.588;9.642;2023-02-11T03:40:14;-4.90;99.90
11087;DHT22;5597;47.588;9.642;2023-02-11T03:42:50;-4.90;99.90
11087;DHT22;5597;47.588;9.642;2023-02-11T03:45:20;-5.00;99.90
11087;DHT22;5597;47.588;9.642;2023-02-11T03:47:53;-5.00;99.90
11087;DHT22;5597;47.588;9.642;2023-02-11T03:50:21;-4.90;99.90
11087;DHT22;5597;47.588;9.642;2023-02-11T03:52:48;-4.90;99.90
11087;DHT22;5597;47.588;9.642;2023-02-11T03:55:18;-5.00;99.90
11087;DHT22;5597;47.588;9.642;2023-02-11T03:57:45;-5.00;99.90
11087;DHT22;5597;47.588;9.642;2023-02-11T04:00:12;-5.00;99.90
11087;DHT22;5597;47.588;9.642;2023-02-11T04:02:38;-5.00;99.90
11087;DHT22;5597;47.588;9.642;2023-02-11T04:05:06;-5.00;99.90
11087;DHT22;5597;47.588;9.642;2023-02-11T04:07:32;-5.00;99.90
11087;DHT22;5597;47.588;9.642;2023-02-11T04:09:58;-5.00;99.90
11087;DHT22;5597;47.588;9.642;2023-02-11T04:12:23;-5.00;99.90
11087;DHT22;5597;47.588;9.642;2023-02-11T04:14:49;-5.00;99.90
11087;DHT22;5597;47.588;9.642;2023-02-11T04:17:14;-4.90;99.90
11087;DHT22;5597;47.588;9.642;2023-02-11T04:19:40;-4.90;99.90
11087;DHT22;5597;47.588;9.642;2023-02-11T04:22:06;-4.90;99.90
11087;DHT22;5597;47.588;9.642;2023-02-11T04:24:32;-4.90;99.90
11087;DHT22;5597;47.588;9.642;2023-02-11T04:26:57;-4.90;99.90
11087;DHT22;5597;47.588;9.642;2023-02-11T04:29:23;-4.90;99.90
11087;DHT22;5597;47.588;9.642;2023-02-11T04:31:49;-4.90;99.90
11087;DHT22;5597;47.588;9.642;2023-02-11T04:34:15;-5.00;99.90
11087;DHT22;5597;47.588;9.642;2023-02-11T04:36:41;-5.00;99.90
11087;DHT22;5597;47.588;9.642;2023-02-11T04:39:07;-4.90;99.90
11087;DHT22;5597;47.588;9.642;2023-02-11T04:41:32;-4.90;99.90
11087;DHT22;5597;47.588;9.642;2023-02-11T04:43:58;-4.90;99.90
11087;DHT22;5597;47.588;9.642;2023-02-11T04:46:24;-4.90;99.90
11087;DHT22;5597;47.588;9.642;2023-02-11T04:48:49;-4.80;99.90
11087;DHT22;5597;47.588;9.642;2023-02-11T04:51:15;-4.80;99.90
11087;DHT22;5597;47.588;9.642;2023-02-11T04:53:41;-4.80;99.90
11087;DHT22;5597;47.588;9.642;2023-02-11T04:56:06;-4.80;99.90
11087;DHT22;5597;47.588;9.642;2023-02-11T04:58:32;-4.80;99.90
11087;DHT22;5597;47.588;9.642;2023-02-11T05:01:09;-4.80;99.90
11087;DHT22;5597;47.588;9.642;2023-02-11T05:03:35;-4.80;99.90
11087;DHT22;5597;47.588;9.642;2023-02-11T05:06:00;-4.80;99.90
11087;DHT22;5597;47.588;9.642;2023-02-11T05:08:26;-4.70;99.90
11087;DHT22;5597;47.588;9.642;2023-02-11T05:10:52;-4.70;99.90
11087;DHT22;5597;47.588;9.642;2023-02-11T05:13:17;-4.70;99.90
11087;DHT22;5597;47.588;9.642;2023-02-11T05:15:43;-4.70;99.90
11087;DHT22;5597;47.588;9.642;2023-02-11T05:18:08;-4.70;99.90
11087;DHT22;5597;47.588;9.642;2023-02-11T05:20:37;-4.60;99.90
11087;DHT22;5597;47.588;9.642;2023-02-11T05:23:03;-4.70;99.90
11087;DHT22;5597;47.588;9.642;2023-02-11T05:25:28;-4.60;99.90
11087;DHT22;5597;47.588;9.642;2023-02-11T05:27:54;-4.70;99.90
11087;DHT22;5597;47.588;9.642;2023-02-11T05:30:20;-4.70;99.90
11087;DHT22;5597;47.588;9.642;2023-02-11T05:32:46;-4.60;99.90
11087;DHT22;5597;47.588;9.642;2023-02-11T05:35:11;-4.70;99.90
11087;DHT22;5597;47.588;9.642;2023-02-11T05:37:37;-4.70;99.90
11087;DHT22;5597;47.588;9.642;2023-02-11T05:40:03;-4.70;99.90
11087;DHT22;5597;47.588;9.642;2023-02-11T05:42:29;-4.70;99.90
11087;DHT22;5597;47.588;9.642;2023-02-11T05:44:55;-4.70;99.90
11087;DHT22;5597;47.588;9.642;2023-02-11T05:47:20;-4.60;99.90
11087;DHT22;5597;47.588;9.642;2023-02-11T05:49:46;-4.60;99.90
11087;DHT22;5597;47.588;9.642;2023-02-11T05:52:11;-4.60;99.90
11087;DHT22;5597;47.588;9.642;2023-02-11T05:54:37;-4.60;99.90
11087;DHT22;5597;47.588;9.642;2023-02-11T05:57:03;-4.60;99.90
11087;DHT22;5597;47.588;9.642;2023-02-11T05:59:28;-4.60;99.90
11087;DHT22;5597;47.588;9.642;2023-02-11T06:01:54;-4.50;99.90
11087;DHT22;5597;47.588;9.642;2023-02-11T06:04:20;-4.50;99.90
11087;DHT22;5597;47.588;9.642;2023-02-11T06:06:46;-4.60;99.90
11087;DHT22;5597;47.588;9.642;2023-02-11T06:09:11;-4.60;99.90
11087;DHT22;5597;47.588;9.642;2023-02-11T06:11:37;-4.70;99.90
11087;DHT22;5597;47.588;9.642;2023-02-11T06:14:03;-4.70;99.90
11087;DHT22;5597;47.588;9.642;2023-02-11T06:16:29;-4.70;99.90
11087;DHT22;5597;47.588;9.642;2023-02-11T06:18:55;-4.70;99.90
11087;DHT22;5597;47.588;9.642;2023-02-11T06:21:20;-4.70;99.90
11087;DHT22;5597;47.588;9.642;2023-02-11T06:23:46;-4.70;99.90
11087;DHT22;5597;47.588;9.642;2023-02-11T06:26:17;-4.70;99.90
11087;DHT22;5597;47.588;9.642;2023-02-11T06:28:43;-4.70;99.90
11087;DHT22;5597;47.588;9.642;2023-02-11T06:31:09;-4.70;99.90
11087;DHT22;5597;47.588;9.642;2023-02-11T06:33:36;-4.70;99.90
11087;DHT22;5597;47.588;9.642;2023-02-11T06:36:03;-4.70;99.90
11087;DHT22;5597;47.588;9.642;2023-02-11T06:38:30;-4.70;99.90
11087;DHT22;5597;47.588;9.642;2023-02-11T06:40:56;-4.70;99.90
11087;DHT22;5597;47.588;9.642;2023-02-11T06:43:21;-4.70;99.90
11087;DHT22;5597;47.588;9.642;2023-02-11T06:45:54;-4.70;99.90
11087;DHT22;5597;47.588;9.642;2023-02-11T06:48:20;-4.70;99.90
11087;DHT22;5597;47.588;9.642;2023-02-11T06:50:46;-4.70;99.90
11087;DHT22;5597;47.588;9.642;2023-02-11T06:53:12;-4.70;99.90
11087;DHT22;5597;47.588;9.642;2023-02-11T06:55:37;-4.60;99.90
11087;DHT22;5597;47.588;9.642;2023-02-11T06:58:03;-4.60;99.90
11087;DHT22;5597;47.588;9.642;2023-02-11T07:00:29;-4.50;99.90
11087;DHT22;5597;47.588;9.642;2023-02-11T07:02:54;-4.50;99.90
11087;DHT22;5597;47.588;9.642;2023-02-11T07:05:20;-4.50;99.90
11087;DHT22;5597;47.588;9.642;2023-02-11T07:07:46;-4.50;99.90
11087;DHT22;5597;47.588;9.642;2023-02-11T07:10:11;-4.50;99.90
11087;DHT22;5597;47.588;9.642;2023-02-11T07:12:37;-4.40;99.90
11087;DHT22;5597;47.588;9.642;2023-02-11T07:15:04;-4.40;99.90
11087;DHT22;5597;47.588;9.642;2023-02-11T07:17:29;-4.40;99.90
11087;DHT22;5597;47.588;9.642;2023-02-11T07:19:55;-4.30;99.90
11087;DHT22;5597;47.588;9.642;2023-02-11T07:22:21;-4.30;99.90
11087;DHT22;5597;47.588;9.642;2023-02-11T07:24:46;-4.30;99.90
11087;DHT22;5597;47.588;9.642;2023-02-11T07:27:12;-4.20;99.90
11087;DHT22;5597;47.588;9.642;2023-02-11T07:29:38;-4.20;99.90
11087;DHT22;5597;47.588;9.642;2023-02-11T07:32:04;-4.20;99.90
11087;DHT22;5597;47.588;9.642;2023-02-11T07:34:30;-4.20;99.90
11087;DHT22;5597;47.588;9.642;2023-02-11T07:36:55;-4.10;99.90
11087;DHT22;5597;47.588;9.642;2023-02-11T07:39:21;-4.10;99.90
11087;DHT22;5597;47.588;9.642;2023-02-11T07:41:47;-4.00;99.90
11087;DHT22;5597;47.588;9.642;2023-02-11T07:44:14;-4.00;99.90
11087;DHT22;5597;47.588;9.642;2023-02-11T07:46:39;-3.80;99.90
11087;DHT22;5597;47.588;9.642;2023-02-11T07:49:10;-3.80;99.90
11087;DHT22;5597;47.588;9.642;2023-02-11T07:51:35;-3.60;99.90
11087;DHT22;5597;47.588;9.642;2023-02-11T07:54:01;-3.50;99.90
11087;DHT22;5597;47.588;9.642;2023-02-11T07:56:27;-3.30;99.90
11087;DHT22;5597;47.588;9.642;2023-02-11T07:58:54;-3.10;99.90
11087;DHT22;5597;47.588;9.642;2023-02-11T08:01:23;-2.90;99.90
11087;DHT22;5597;47.588;9.642;2023-02-11T08:03:52;-2.80;99.90
11087;DHT22;5597;47.588;9.642;2023-02-11T08:06:19;-2.70;99.90
11087;DHT22;5597;47.588;9.642;2023-02-11T08:08:45;-2.60;99.90
11087;DHT22;5597;47.588;9.642;2023-02-11T08:11:20;-2.50;99.90
11087;DHT22;5597;47.588;9.642;2023-02-11T08:13:46;-2.40;99.90
11087;DHT22;5597;47.588;9.642;2023-02-11T08:16:35;-2.30;99.90
11087;DHT22;5597;47.588;9.642;2023-02-11T08:19:04;-2.20;99.90
11087;DHT22;5597;47.588;9.642;2023-02-11T08:21:29;-2.10;99.90
11087;DHT22;5597;47.588;9.642;2023-02-11T08:23:55;-1.90;99.90
11087;DHT22;5597;47.588;9.642;2023-02-11T08:26:23;-1.80;99.90
11087;DHT22;5597;47.588;9.642;2023-02-11T08:28:51;-1.70;99.90
11087;DHT22;5597;47.588;9.642;2023-02-11T08:31:23;-1.50;99.90
11087;DHT22;5597;47.588;9.642;2023-02-11T08:33:49;-1.40;99.90
11087;DHT22;5597;47.588;9.642;2023-02-11T08:36:17;-1.20;99.90
11087;DHT22;5597;47.588;9.642;2023-02-11T08:38:44;-1.00;99.90
11087;DHT22;5597;47.588;9.642;2023-02-11T08:41:10;-0.90;99.90
11087;DHT22;5597;47.588;9.642;2023-02-11T08:43:36;-0.80;99.90
11087;DHT22;5597;47.588;9.642;2023-02-11T08:46:06;-0.70;99.90
11087;DHT22;5597;47.588;9.642;2023-02-11T08:48:31;-0.60;99.90
11087;DHT22;5597;47.588;9.642;2023-02-11T08:50:57;-0.40;99.90
11087;DHT22;5597;47.588;9.642;2023-02-11T08:53:23;-0.30;99.90
11087;DHT22;5597;47.588;9.642;2023-02-11T08:55:50;-0.20;99.90
11087;DHT22;5597;47.588;9.642;2023-02-11T08:58:16;-0.10;99.90
11087;DHT22;5597;47.588;9.642;2023-02-11T09:00:42;0.00;99.90
11087;DHT22;5597;47.588;9.642;2023-02-11T09:03:10;0.10;99.90
11087;DHT22;5597;47.588;9.642;2023-02-11T09:05:44;0.10;99.90
11087;DHT22;5597;47.588;9.642;2023-02-11T09:08:09;0.20;99.90
11087;DHT22;5597;47.588;9.642;2023-02-11T09:10:35;0.30;99.90
11087;DHT22;5597;47.588;9.642;2023-02-11T09:13:01;0.30;99.90
11087;DHT22;5597;47.588;9.642;2023-02-11T09:15:27;0.40;99.90
11087;DHT22;5597;47.588;9.642;2023-02-11T09:17:52;0.40;99.90
11087;DHT22;5597;47.588;9.642;2023-02-11T09:20:18;0.50;99.90
11087;DHT22;5597;47.588;9.642;2023-02-11T09:22:43;0.50;99.90
11087;DHT22;5597;47.588;9.642;2023-02-11T09:25:09;0.60;99.90
11087;DHT22;5597;47.588;9.642;2023-02-11T09:27:35;0.70;99.90
11087;DHT22;5597;47.588;9.642;2023-02-11T09:30:01;0.70;99.90
11087;DHT22;5597;47.588;9.642;2023-02-11T09:32:27;0.80;99.90
11087;DHT22;5597;47.588;9.642;2023-02-11T09:34:52;0.90;99.90
11087;DHT22;5597;47.588;9.642;2023-02-11T09:37:18;1.00;99.90
11087;DHT22;5597;47.588;9.642;2023-02-11T09:39:44;1.20;99.90
11087;DHT22;5597;47.588;9.642;2023-02-11T09:45:04;1.30;99.90
11087;DHT22;5597;47.588;9.642;2023-02-11T09:47:33;1.50;99.90
11087;DHT22;5597;47.588;9.642;2023-02-11T09:50:06;1.60;99.90
11087;DHT22;5597;47.588;9.642;2023-02-11T09:52:36;1.70;99.90
11087;DHT22;5597;47.588;9.642;2023-02-11T09:57:44;2.00;99.90
11087;DHT22;5597;47.588;9.642;2023-02-11T10:00:35;2.20;99.90
11087;DHT22;5597;47.588;9.642;2023-02-11T10:03:20;2.50;99.90
11087;DHT22;5597;47.588;9.642;2023-02-11T10:06:14;2.60;99.90
11087;DHT22;5597;47.588;9.642;2023-02-11T10:08:58;2.80;99.90
11087;DHT22;5597;47.588;9.642;2023-02-11T10:12:02;2.90;99.90
11087;DHT22;5597;47.588;9.642;2023-02-11T10:22:40;3.00;99.90
11087;DHT22;5597;47.588;9.642;2023-02-11T10:25:34;3.20;99.90
11087;DHT22;5597;47.588;9.642;2023-02-11T10:28:19;3.30;99.90
11087;DHT22;5597;47.588;9.642;2023-02-11T10:33:33;3.60;99.90
11087;DHT22;5597;47.588;9.642;2023-02-11T10:36:00;3.70;99.90
11087;DHT22;5597;47.588;9.642;2023-02-11T10:38:27;3.80;99.90
11087;DHT22;5597;47.588;9.642;2023-02-11T10:40:52;3.90;99.90
11087;DHT22;5597;47.588;9.642;2023-02-11T10:43:22;4.00;99.90
11087;DHT22;5597;47.588;9.642;2023-02-11T10:45:52;4.10;99.90
11087;DHT22;5597;47.588;9.642;2023-02-11T10:49:10;4.30;99.90
11087;DHT22;5597;47.588;9.642;2023-02-11T10:51:30;4.40;99.90
11087;DHT22;5597;47.588;9.642;2023-02-11T10:56:40;4.50;99.90
11087;DHT22;5597;47.588;9.642;2023-02-11T10:59:30;4.70;99.90
11087;DHT22;5597;47.588;9.642;2023-02-11T11:02:01;4.70;99.90
11087;DHT22;5597;47.588;9.642;2023-02-11T11:04:36;4.60;99.90
11087;DHT22;5597;47.588;9.642;2023-02-11T11:07:21;4.40;99.90
11087;DHT22;5597;47.588;9.642;2023-02-11T11:09:56;4.40;99.90
11087;DHT22;5597;47.588;9.642;2023-02-11T11:12:47;4.60;99.90
11087;DHT22;5597;47.588;9.642;2023-02-11T11:15:20;4.80;99.90
11087;DHT22;5597;47.588;9.642;2023-02-11T11:17:47;5.10;99.90
11087;DHT22;5597;47.588;9.642;2023-02-11T11:20:26;5.30;99.90
11087;DHT22;5597;47.588;9.642;2023-02-11T11:23:20;5.40;99.90
11087;DHT22;5597;47.588;9.642;2023-02-11T11:26:11;5.50;99.90
11087;DHT22;5597;47.588;9.642;2023-02-11T11:31:16;6.00;99.90
11087;DHT22;5597;47.588;9.642;2023-02-11T11:33:44;6.40;99.90
11087;DHT22;5597;47.588;9.642;2023-02-11T11:36:14;6.60;99.90
11087;DHT22;5597;47.588;9.642;2023-02-11T11:38:52;6.60;99.90
11087;DHT22;5597;47.588;9.642;2023-02-11T11:41:20;6.60;99.90
11087;DHT22;5597;47.588;9.642;2023-02-11T11:44:13;6.50;99.90
11087;DHT22;5597;47.588;9.642;2023-02-11T11:46:43;6.50;99.90
11087;DHT22;5597;47.588;9.642;2023-02-11T11:49:16;6.50;99.90
11087;DHT22;5597;47.588;9.642;2023-02-11T11:51:53;6.50;99.90
11087;DHT22;5597;47.588;9.642;2023-02-11T11:54:19;6.50;99.90
11087;DHT22;5597;47.588;9.642;2023-02-11T11:57:11;6.50;99.90
11087;DHT22;5597;47.588;9.642;2023-02-11T11:59:38;6.70;99.90
11087;DHT22;5597;47.588;9.642;2023-02-11T12:10:26;7.30;99.90
11087;DHT22;5597;47.588;9.642;2023-02-11T12:13:18;7.40;99.90
11087;DHT22;5597;47.588;9.642;2023-02-11T12:16:24;7.60;99.90
11087;DHT22;5597;47.588;9.642;2023-02-11T12:19:08;7.70;99.90
11087;DHT22;5597;47.588;9.642;2023-02-11T12:21:39;7.90;99.90
11087;DHT22;5597;47.588;9.642;2023-02-11T12:27:17;8.00;99.90
11087;DHT22;5597;47.588;9.642;2023-02-11T12:53:40;7.60;99.90
11087;DHT22;5597;47.588;9.642;2023-02-11T12:56:40;7.50;99.90
11087;DHT22;5597;47.588;9.642;2023-02-11T12:59:11;7.40;99.90
11087;DHT22;5597;47.588;9.642;2023-02-11T13:01:42;7.30;99.90
11087;DHT22;5597;47.588;9.642;2023-02-11T13:04:16;7.30;99.90
11087;DHT22;5597;47.588;9.642;2023-02-11T13:06:55;7.30;99.90
11087;DHT22;5597;47.588;9.642;2023-02-11T13:09:38;7.30;99.90
11087;DHT22;5597;47.588;9.642;2023-02-11T13:12:05;7.40;99.90
11087;DHT22;5597;47.588;9.642;2023-02-11T13:14:53;7.40;99.90
11087;DHT22;5597;47.588;9.642;2023-02-11T13:17:32;7.60;99.90
11087;DHT22;5597;47.588;9.642;2023-02-11T13:20:27;7.60;99.90
11087;DHT22;5597;47.588;9.642;2023-02-11T13:25:33;7.90;99.90
11087;DHT22;5597;47.588;9.642;2023-02-11T13:28:31;7.90;99.90
11087;DHT22;5597;47.588;9.642;2023-02-11T13:31:01;8.00;99.90
11087;DHT22;5597;47.588;9.642;2023-02-11T13:33:38;8.10;99.90
11087;DHT22;5597;47.588;9.642;2023-02-11T13:38:33;8.30;99.90
11087;DHT22;5597;47.588;9.642;2023-02-11T13:41:05;8.40;99.90
11087;DHT22;5597;47.588;9.642;2023-02-11T13:43:34;8.50;99.90
11087;DHT22;5597;47.588;9.642;2023-02-11T13:46:03;8.60;99.90
11087;DHT22;5597;47.588;9.642;2023-02-11T13:48:37;8.70;99.90
11087;DHT22;5597;47.588;9.642;2023-02-11T13:53:29;8.80;99.90
11087;DHT22;5597;47.588;9.642;2023-02-11T13:56:10;8.90;99.90
11087;DHT22;5597;47.588;9.642;2023-02-11T13:58:46;8.90;99.90
11087;DHT22;5597;47.588;9.642;2023-02-11T14:01:39;8.80;99.90
11087;DHT22;5597;47.588;9.642;2023-02-11T14:04:26;8.90;99.90
11087;DHT22;5597;47.588;9.642;2023-02-11T14:07:28;8.90;99.90
11087;DHT22;5597;47.588;9.642;2023-02-11T14:13:33;8.90;99.90
11087;DHT22;5597;47.588;9.642;2023-02-11T14:21:16;8.90;99.90
11087;DHT22;5597;47.588;9.642;2023-02-11T14:23:43;8.90;99.90
11087;DHT22;5597;47.588;9.642;2023-02-11T14:28:50;8.90;99.90
11087;DHT22;5597;47.588;9.642;2023-02-11T14:31:20;8.80;99.90
11087;DHT22;5597;47.588;9.642;2023-02-11T14:34:02;8.80;99.90
11087;DHT22;5597;47.588;9.642;2023-02-11T14:36:54;8.70;99.90
11087;DHT22;5597;47.588;9.642;2023-02-11T14:39:46;8.60;99.90
11087;DHT22;5597;47.588;9.642;2023-02-11T14:42:21;8.60;99.90
11087;DHT22;5597;47.588;9.642;2023-02-11T14:44:52;8.40;99.90
11087;DHT22;5597;47.588;9.642;2023-02-11T14:47:23;8.40;99.90
11087;DHT22;5597;47.588;9.642;2023-02-11T14:49:51;8.40;99.90
11087;DHT22;5597;47.588;9.642;2023-02-11T14:52:31;8.20;99.90
11087;DHT22;5597;47.588;9.642;2023-02-11T14:58:25;8.00;99.90
11087;DHT22;5597;47.588;9.642;2023-02-11T15:00:58;7.90;99.90
11087;DHT22;5597;47.588;9.642;2023-02-11T15:05:59;7.80;99.90
11087;DHT22;5597;47.588;9.642;2023-02-11T15:08:27;7.80;99.90
11087;DHT22;5597;47.588;9.642;2023-02-11T15:10:54;7.80;99.90
11087;DHT22;5597;47.588;9.642;2023-02-11T15:13:22;7.70;99.90
11087;DHT22;5597;47.588;9.642;2023-02-11T15:15:54;7.70;99.90
11087;DHT22;5597;47.588;9.642;2023-02-11T15:18:23;7.60;99.90
11087;DHT22;5597;47.588;9.642;2023-02-11T15:20:50;7.60;99.90
11087;DHT22;5597;47.588;9.642;2023-02-11T15:23:24;7.60;99.90
11087;DHT22;5597;47.588;9.642;2023-02-11T15:25:52;7.50;99.90
11087;DHT22;5597;47.588;9.642;2023-02-11T15:28:32;7.50;99.90
11087;DHT22;5597;47.588;9.642;2023-02-11T15:33:28;7.40;99.90
11087;DHT22;5597;47.588;9.642;2023-02-11T15:35:55;7.40;99.90
11087;DHT22;5597;47.588;9.642;2023-02-11T15:38:22;7.30;99.90
11087;DHT22;5597;47.588;9.642;2023-02-11T15:40:58;7.20;99.90
11087;DHT22;5597;47.588;9.642;2023-02-11T15:43:43;7.10;99.90
11087;DHT22;5597;47.588;9.642;2023-02-11T15:46:11;7.10;99.90
11087;DHT22;5597;47.588;9.642;2023-02-11T15:48:45;7.00;99.90
11087;DHT22;5597;47.588;9.642;2023-02-11T15:51:35;6.90;99.90
11087;DHT22;5597;47.588;9.642;2023-02-11T15:54:06;6.80;99.90
11087;DHT22;5597;47.588;9.642;2023-02-11T15:56:43;6.70;99.90
11087;DHT22;5597;47.588;9.642;2023-02-11T15:59:24;6.50;99.90
11087;DHT22;5597;47.588;9.642;2023-02-11T16:01:52;6.50;99.90
11087;DHT22;5597;47.588;9.642;2023-02-11T16:04:24;6.40;99.90
11087;DHT22;5597;47.588;9.642;2023-02-11T16:06:51;6.30;99.90
11087;DHT22;5597;47.588;9.642;2023-02-11T16:16:50;5.80;99.90
11087;DHT22;5597;47.588;9.642;2023-02-11T16:19:19;5.70;99.90
11087;DHT22;5597;47.588;9.642;2023-02-11T16:21:45;5.60;99.90
11087;DHT22;5597;47.588;9.642;2023-02-11T16:24:32;5.50;99.90
11087;DHT22;5597;47.588;9.642;2023-02-11T16:27:03;5.50;99.90
11087;DHT22;5597;47.588;9.642;2023-02-11T16:29:31;5.40;99.90
11087;DHT22;5597;47.588;9.642;2023-02-11T16:32:19;5.30;99.90
11087;DHT22;5597;47.588;9.642;2023-02-11T16:34:46;5.20;99.90
11087;DHT22;5597;47.588;9.642;2023-02-11T16:37:11;5.10;99.90
11087;DHT22;5597;47.588;9.642;2023-02-11T16:39:37;5.00;99.90
11087;DHT22;5597;47.588;9.642;2023-02-11T16:42:03;4.90;99.90
11087;DHT22;5597;47.588;9.642;2023-02-11T16:44:29;4.70;99.90
11087;DHT22;5597;47.588;9.642;2023-02-11T16:46:58;4.60;99.90
11087;DHT22;5597;47.588;9.642;2023-02-11T16:49:27;4.40;99.90
11087;DHT22;5597;47.588;9.642;2023-02-11T16:51:58;4.30;99.90
11087;DHT22;5597;47.588;9.642;2023-02-11T16:54:26;4.10;99.90
11087;DHT22;5597;47.588;9.642;2023-02-11T16:56:52;4.00;99.90
11087;DHT22;5597;47.588;9.642;2023-02-11T16:59:18;3.80;99.90
11087;DHT22;5597;47.588;9.642;2023-02-11T17:01:44;3.60;99.90
11087;DHT22;5597;47.588;9.642;2023-02-11T17:04:18;3.50;99.90
11087;DHT22;5597;47.588;9.642;2023-02-11T17:06:44;3.40;99.90
11087;DHT22;5597;47.588;9.642;2023-02-11T17:09:22;3.40;99.90
11087;DHT22;5597;47.588;9.642;2023-02-11T17:11:51;3.40;99.90
11087;DHT22;5597;47.588;9.642;2023-02-11T17:14:18;3.30;99.90
11087;DHT22;5597;47.588;9.642;2023-02-11T17:16:45;3.20;99.90
11087;DHT22;5597;47.588;9.642;2023-02-11T17:19:13;3.10;99.90
11087;DHT22;5597;47.588;9.642;2023-02-11T17:21:43;3.00;99.90
11087;DHT22;5597;47.588;9.642;2023-02-11T17:24:09;2.90;99.90
11087;DHT22;5597;47.588;9.642;2023-02-11T17:26:36;2.80;99.90
11087;DHT22;5597;47.588;9.642;2023-02-11T17:29:05;2.70;99.90
11087;DHT22;5597;47.588;9.642;2023-02-11T17:31:30;2.60;99.90
11087;DHT22;5597;47.588;9.642;2023-02-11T17:33:56;2.60;99.90
11087;DHT22;5597;47.588;9.642;2023-02-11T17:36:22;2.50;99.90
11087;DHT22;5597;47.588;9.642;2023-02-11T17:38:47;2.50;99.90
11087;DHT22;5597;47.588;9.642;2023-02-11T17:41:13;2.50;99.90
11087;DHT22;5597;47.588;9.642;2023-02-11T17:43:39;2.50;99.90
11087;DHT22;5597;47.588;9.642;2023-02-11T17:46:06;2.40;99.90
11087;DHT22;5597;47.588;9.642;2023-02-11T17:48:32;2.40;99.90
11087;DHT22;5597;47.588;9.642;2023-02-11T17:50:57;2.20;99.90
11087;DHT22;5597;47.588;9.642;2023-02-11T17:53:23;2.20;99.90
11087;DHT22;5597;47.588;9.642;2023-02-11T17:55:48;2.10;99.90
11087;DHT22;5597;47.588;9.642;2023-02-11T17:58:14;2.00;99.90
11087;DHT22;5597;47.588;9.642;2023-02-11T18:00:40;1.90;99.90
11087;DHT22;5597;47.588;9.642;2023-02-11T18:03:05;1.80;99.90
11087;DHT22;5597;47.588;9.642;2023-02-11T18:05:36;1.80;99.90
11087;DHT22;5597;47.588;9.642;2023-02-11T18:08:04;1.70;99.90
11087;DHT22;5597;47.588;9.642;2023-02-11T18:10:30;1.60;99.90
11087;DHT22;5597;47.588;9.642;2023-02-11T18:12:56;1.50;99.90
11087;DHT22;5597;47.588;9.642;2023-02-11T18:15:21;1.40;99.90